createdAt,value
2023-03-05T00:01:06.986Z,-0.53
2023-03-05T00:03:33.914Z,-0.56
2023-03-05T00:06:00.711Z,-0.59
2023-03-05T00:08:29.025Z,-0.61
2023-03-05T00:11:16.780Z,-0.63
2023-03-05T00:13:43.647Z,-0.62
2023-03-05T00:16:12.874Z,-0.62
2023-03-05T00:18:40.096Z,-0.57
2023-03-05T00:21:21.881Z,-0.54
2023-03-05T00:23:50.765Z,-0.63
2023-03-05T00:26:18.558Z,-0.67
2023-03-05T00:28:49.993Z,-0.73
2023-03-05T00:31:17.906Z,-0.75
2023-03-05T00:33:44.809Z,-0.73
2023-03-05T00:36:11.765Z,-0.72
2023-03-05T00:38:38.473Z,-0.73
2023-03-05T00:41:05.363Z,-0.76
2023-03-05T00:43:32.125Z,-0.76
2023-03-05T00:45:58.951Z,-0.76
2023-03-05T00:48:25.840Z,-0.77
2023-03-05T00:50:53.842Z,-0.78
2023-03-05T00:53:22.557Z,-0.88
2023-03-05T00:55:49.286Z,-0.86
2023-03-05T00:58:16.032Z,-0.89
2023-03-05T01:00:43.141Z,-0.91
2023-03-05T01:03:09.941Z,-0.89
2023-03-05T01:05:36.928Z,-0.93
2023-03-05T01:08:03.918Z,-0.91
2023-03-05T01:10:30.716Z,-0.88
2023-03-05T01:12:58.132Z,-0.91
2023-03-05T01:15:25.591Z,-0.94
2023-03-05T01:17:52.720Z,-0.94
2023-03-05T01:20:22.040Z,-0.97
2023-03-05T01:22:49.119Z,-0.99
2023-03-05T01:25:17.094Z,-1.02
2023-03-05T01:27:43.959Z,-1.04
2023-03-05T01:30:12.247Z,-0.99
2023-03-05T01:32:39.005Z,-1.04
2023-03-05T01:35:06.779Z,-1.08
2023-03-05T01:37:33.579Z,-1.14
2023-03-05T01:40:00.395Z,-1.19
2023-03-05T01:42:27.185Z,-1.19
2023-03-05T01:45:10.979Z,-1.22
2023-03-05T01:47:38.113Z,-1.24
2023-03-05T01:50:07.414Z,-1.25
2023-03-05T01:52:36.899Z,-1.33
2023-03-05T01:55:24.757Z,-1.31
2023-03-05T01:58:01.200Z,-1.31
2023-03-05T02:00:46.065Z,-1.37
2023-03-05T02:03:14.588Z,-1.37
2023-03-05T02:05:44.489Z,-1.37
2023-03-05T02:08:14.343Z,-1.43
2023-03-05T02:10:46.877Z,-1.48
2023-03-05T02:13:25.536Z,-1.48
2023-03-05T02:15:55.858Z,-1.52
2023-03-05T02:18:23.136Z,-1.71
2023-03-05T02:20:56.994Z,-1.61
2023-03-05T02:23:26.420Z,-1.61
2023-03-05T02:25:53.958Z,-1.59
2023-03-05T02:28:20.645Z,-1.63
2023-03-05T02:30:47.479Z,-1.70
2023-03-05T02:33:15.132Z,-1.89
2023-03-05T02:35:43.768Z,-1.82
2023-03-05T02:38:11.816Z,-1.76
2023-03-05T02:40:38.828Z,-1.84
2023-03-05T02:43:07.339Z,-1.70
2023-03-05T02:45:34.129Z,-1.74
2023-03-05T02:48:01.066Z,-1.74
2023-03-05T02:50:28.702Z,-1.73
2023-03-05T02:52:55.412Z,-1.74
2023-03-05T02:55:22.421Z,-1.78
2023-03-05T02:57:49.183Z,-1.92
2023-03-05T03:00:16.687Z,-1.79
2023-03-05T03:02:43.609Z,-1.80
2023-03-05T03:05:10.422Z,-1.85
2023-03-05T03:07:37.195Z,-1.85
2023-03-05T03:10:05.387Z,-1.81
2023-03-05T03:12:32.164Z,-1.79
2023-03-05T03:15:01.158Z,-1.85
2023-03-05T03:17:29.900Z,-1.76
2023-03-05T03:19:56.692Z,-1.78
2023-03-05T03:22:23.453Z,-1.81
2023-03-05T03:24:50.192Z,-1.82
2023-03-05T03:27:16.955Z,-1.76
2023-03-05T03:29:43.700Z,-1.89
2023-03-05T03:32:10.574Z,-1.86
2023-03-05T03:34:37.362Z,-1.94
2023-03-05T03:37:04.125Z,-1.91
2023-03-05T03:39:30.946Z,-1.85
2023-03-05T03:41:57.771Z,-1.82
2023-03-05T03:44:24.875Z,-1.84
2023-03-05T03:46:52.001Z,-1.86
2023-03-05T03:49:25.192Z,-1.80
2023-03-05T03:51:54.670Z,-1.83
2023-03-05T03:54:22.048Z,-1.83
2023-03-05T03:56:48.942Z,-1.83
2023-03-05T03:59:15.725Z,-1.82
2023-03-05T04:01:42.561Z,-1.79
2023-03-05T04:04:12.659Z,-1.76
2023-03-05T04:06:40.107Z,-1.77
2023-03-05T04:09:10.852Z,-1.77
2023-03-05T04:11:37.982Z,-1.74
2023-03-05T04:14:05.227Z,-1.73
2023-03-05T04:16:32.012Z,-1.74
2023-03-05T04:18:58.855Z,-1.77
2023-03-05T04:21:25.747Z,-1.84
2023-03-05T04:23:52.494Z,-1.80
2023-03-05T04:26:19.264Z,-1.76
2023-03-05T04:28:48.347Z,-1.75
2023-03-05T04:31:15.047Z,-1.77
2023-03-05T04:33:41.833Z,-1.73
2023-03-05T04:36:08.901Z,-1.66
2023-03-05T04:38:35.653Z,-1.71
2023-03-05T04:41:02.481Z,-1.76
2023-03-05T04:43:29.235Z,-1.71
2023-03-05T04:45:56.229Z,-1.82
2023-03-05T04:48:22.986Z,-1.63
2023-03-05T04:50:49.852Z,-1.57
2023-03-05T04:53:16.751Z,-1.60
2023-03-05T04:55:44.095Z,-1.70
2023-03-05T04:58:10.927Z,-1.58
2023-03-05T05:00:37.730Z,-1.66
2023-03-05T05:03:04.551Z,-1.67
2023-03-05T05:05:31.307Z,-1.64
2023-03-05T05:07:58.855Z,-1.60
2023-03-05T05:10:26.635Z,-1.70
2023-03-05T05:12:53.608Z,-1.52
2023-03-05T05:15:20.732Z,-1.53
2023-03-05T05:17:47.927Z,-1.54
2023-03-05T05:20:16.853Z,-1.57
2023-03-05T05:22:44.041Z,-1.54
2023-03-05T05:25:11.682Z,-1.71
2023-03-05T05:27:40.640Z,-1.74
2023-03-05T05:30:08.313Z,-1.67
2023-03-05T05:32:35.218Z,-1.51
2023-03-05T05:35:03.991Z,-1.47
2023-03-05T05:37:30.980Z,-1.43
2023-03-05T05:39:57.874Z,-1.40
2023-03-05T05:42:25.433Z,-1.40
2023-03-05T05:44:52.312Z,-1.39
2023-03-05T05:47:19.663Z,-1.38
2023-03-05T05:49:46.630Z,-1.41
2023-03-05T05:52:14.206Z,-1.38
2023-03-05T05:54:40.963Z,-1.40
2023-03-05T05:57:07.766Z,-1.39
2023-03-05T05:59:34.752Z,-1.40
2023-03-05T06:02:01.601Z,-1.31
2023-03-05T06:04:28.456Z,-1.24
2023-03-05T06:06:55.285Z,-1.26
2023-03-05T06:09:22.096Z,-1.30
2023-03-05T06:11:48.925Z,-1.24
2023-03-05T06:14:15.652Z,-1.22
2023-03-05T06:16:42.459Z,-1.24
2023-03-05T06:19:12.223Z,-1.24
2023-03-05T06:21:39.043Z,-1.23
2023-03-05T06:24:06.529Z,-1.22
2023-03-05T06:26:33.719Z,-1.19
2023-03-05T06:29:00.543Z,-1.22
2023-03-05T06:31:29.031Z,-1.14
2023-03-05T06:34:03.104Z,-1.10
2023-03-05T06:36:30.512Z,-1.07
2023-03-05T06:38:57.784Z,-0.95
2023-03-05T06:41:30.797Z,-0.88
2023-03-05T06:44:00.239Z,-0.80
2023-03-05T06:46:30.270Z,-0.74
2023-03-05T06:48:58.848Z,-0.72
2023-03-05T06:51:31.804Z,-0.70
2023-03-05T06:54:05.351Z,-0.71
2023-03-05T06:56:33.055Z,-0.63
2023-03-05T06:58:59.892Z,-0.57
2023-03-05T07:01:26.759Z,-0.53
2023-03-05T07:03:54.940Z,-0.50
2023-03-05T07:06:22.575Z,-0.49
2023-03-05T07:08:49.835Z,-0.53
2023-03-05T07:11:19.212Z,-0.57
2023-03-05T07:13:49.462Z,-0.56
2023-03-05T07:16:23.014Z,-0.50
2023-03-05T07:18:50.253Z,-0.49
2023-03-05T07:21:25.902Z,-0.50
2023-03-05T07:23:57.222Z,-0.58
2023-03-05T07:26:24.841Z,-0.38
2023-03-05T07:28:52.252Z,-0.29
2023-03-05T07:31:21.750Z,-0.19
2023-03-05T07:33:50.598Z,-0.15
2023-03-05T07:36:17.780Z,-0.16
2023-03-05T07:38:44.997Z,-0.18
2023-03-05T07:41:15.194Z,-0.14
2023-03-05T07:43:42.052Z,-0.01
2023-03-05T07:46:11.557Z,0.09
2023-03-05T07:48:38.666Z,0.16
2023-03-05T07:51:08.527Z,0.23
2023-03-05T07:53:35.573Z,0.17
2023-03-05T07:56:02.445Z,0.23
2023-03-05T07:58:29.407Z,0.31
2023-03-05T08:00:56.173Z,0.37
2023-03-05T08:03:22.896Z,0.46
2023-03-05T08:05:49.732Z,0.58
2023-03-05T08:08:16.680Z,0.63
2023-03-05T08:10:43.460Z,0.60
2023-03-05T08:13:10.483Z,0.58
2023-03-05T08:15:38.202Z,0.62
2023-03-05T08:18:05.330Z,0.46
2023-03-05T08:20:36.011Z,0.31
2023-03-05T08:23:03.542Z,0.32
2023-03-05T08:25:31.508Z,0.37
2023-03-05T08:27:58.464Z,0.44
2023-03-05T08:30:27.602Z,0.59
2023-03-05T08:32:55.317Z,0.69
2023-03-05T08:35:22.254Z,0.80
2023-03-05T08:37:49.344Z,0.90
2023-03-05T08:40:18.168Z,0.98
2023-03-05T08:42:45.475Z,0.99
2023-03-05T08:45:12.815Z,1.01
2023-03-05T08:47:39.727Z,0.99
2023-03-05T08:50:07.149Z,1.08
2023-03-05T08:52:34.620Z,1.22
2023-03-05T08:55:01.440Z,1.34
2023-03-05T08:57:28.480Z,1.43
2023-03-05T08:59:55.275Z,1.51
2023-03-05T09:02:21.997Z,1.46
2023-03-05T09:04:48.858Z,1.33
2023-03-05T09:07:15.618Z,1.31
2023-03-05T09:09:42.422Z,1.31
2023-03-05T09:12:12.061Z,1.15
2023-03-05T09:14:40.241Z,1.24
2023-03-05T09:17:07.221Z,1.25
2023-03-05T09:19:34.244Z,1.29
2023-03-05T09:22:01.001Z,1.27
2023-03-05T09:24:27.851Z,1.33
2023-03-05T09:26:58.682Z,1.23
2023-03-05T09:29:26.823Z,1.15
2023-03-05T09:31:54.201Z,1.23
2023-03-05T09:34:21.629Z,1.35
2023-03-05T09:36:48.843Z,1.42
2023-03-05T09:39:16.305Z,1.38
2023-03-05T09:42:20.571Z,1.24
2023-03-05T09:45:21.564Z,0.95
2023-03-05T09:47:56.270Z,0.83
2023-03-05T09:50:32.571Z,0.85
2023-03-05T09:53:18.109Z,0.89
2023-03-05T09:55:53.857Z,1.05
2023-03-05T09:58:50.488Z,1.09
2023-03-05T10:01:24.304Z,1.15
2023-03-05T10:03:59.350Z,1.25
2023-03-05T10:06:45.003Z,1.23
2023-03-05T10:09:11.728Z,1.08
2023-03-05T10:11:45.472Z,1.02
2023-03-05T10:14:34.363Z,1.01
2023-03-05T10:17:24.873Z,1.12
2023-03-05T10:19:57.773Z,1.16
2023-03-05T10:22:29.919Z,1.23
2023-03-05T10:25:15.294Z,1.27
2023-03-05T10:27:49.636Z,1.28
2023-03-05T10:31:02.993Z,1.28
2023-03-05T10:33:35.542Z,1.05
2023-03-05T10:36:20.611Z,0.98
2023-03-05T10:38:49.984Z,0.95
2023-03-05T10:41:22.560Z,0.90
2023-03-05T10:44:18.523Z,0.75
2023-03-05T10:46:48.026Z,0.59
2023-03-05T10:49:22.764Z,0.45
2023-03-05T10:52:04.232Z,0.38
2023-03-05T10:54:35.999Z,0.34
2023-03-05T10:57:27.410Z,0.28
2023-03-05T11:00:01.354Z,0.32
2023-03-05T11:02:28.431Z,0.36
2023-03-05T11:04:55.250Z,0.39
2023-03-05T11:07:22.874Z,0.40
2023-03-05T11:10:29.545Z,0.40
2023-03-05T11:12:58.652Z,0.46
2023-03-05T11:15:27.853Z,0.37
2023-03-05T11:18:29.092Z,0.34
2023-03-05T11:21:09.196Z,0.39
2023-03-05T11:23:36.023Z,0.42
2023-03-05T11:26:04.604Z,0.39
2023-03-05T11:28:35.359Z,0.44
2023-03-05T11:31:17.241Z,0.54
2023-03-05T11:34:01.742Z,0.68
2023-03-05T11:36:54.624Z,0.82
2023-03-05T11:39:24.862Z,0.86
2023-03-05T11:42:17.218Z,0.87
2023-03-05T11:44:56.128Z,0.78
2023-03-05T11:48:09.679Z,0.64
2023-03-05T11:50:41.185Z,0.56
2023-03-05T11:53:14.963Z,0.56
2023-03-05T11:55:48.893Z,0.63
2023-03-05T11:58:41.264Z,0.75
2023-03-05T12:01:41.457Z,0.62
2023-03-05T12:04:08.879Z,0.42
2023-03-05T12:06:50.144Z,0.41
2023-03-05T12:09:33.881Z,0.53
2023-03-05T12:12:38.571Z,0.57
2023-03-05T12:15:42.593Z,0.56
2023-03-05T12:18:27.389Z,0.58
2023-03-05T12:21:08.051Z,0.60
2023-03-05T12:24:22.977Z,0.63
2023-03-05T12:27:04.764Z,0.73
2023-03-05T12:29:49.709Z,0.71
2023-03-05T12:32:22.582Z,0.68
2023-03-05T12:34:58.270Z,0.82
2023-03-05T12:37:25.069Z,0.97
2023-03-05T12:40:01.197Z,1.02
2023-03-05T12:42:30.750Z,0.97
2023-03-05T12:45:09.696Z,0.83
2023-03-05T12:47:39.284Z,0.83
2023-03-05T12:50:27.369Z,0.92
2023-03-05T12:52:58.740Z,0.95
2023-03-05T12:55:35.685Z,0.89
2023-03-05T12:58:21.812Z,0.96
2023-03-05T13:00:53.536Z,0.86
2023-03-05T13:03:25.504Z,0.82
2023-03-05T13:05:57.993Z,0.85
2023-03-05T13:08:35.536Z,0.80
2023-03-05T13:11:08.921Z,0.72
2023-03-05T13:13:43.911Z,0.77
2023-03-05T13:16:26.533Z,0.71
2023-03-05T13:18:55.207Z,0.57
2023-03-05T13:21:26.947Z,0.60
2023-03-05T13:23:59.053Z,0.55
2023-03-05T13:26:36.096Z,0.48
2023-03-05T13:29:02.972Z,0.44
2023-03-05T13:31:30.312Z,0.41
2023-03-05T13:34:11.237Z,0.41
2023-03-05T13:36:39.945Z,0.44
2023-03-05T13:39:07.687Z,0.41
2023-03-05T13:41:34.543Z,0.45
2023-03-05T13:44:02.808Z,0.50
2023-03-05T13:46:34.169Z,0.49
2023-03-05T13:49:25.398Z,0.52
2023-03-05T13:52:00.143Z,0.47
2023-03-05T13:54:28.284Z,0.24
2023-03-05T13:57:05.563Z,0.31
2023-03-05T13:59:34.606Z,0.25
2023-03-05T14:02:03.866Z,0.23
2023-03-05T14:04:36.805Z,0.28
2023-03-05T14:07:18.932Z,0.09
2023-03-05T14:09:50.055Z,0.22
2023-03-05T14:12:19.502Z,0.20
2023-03-05T14:14:46.459Z,0.20
2023-03-05T14:17:31.163Z,0.23
2023-03-05T14:20:23.202Z,0.17
2023-03-05T14:22:58.738Z,0.16
2023-03-05T14:25:39.906Z,0.17
2023-03-05T14:28:18.796Z,0.11
2023-03-05T14:30:51.958Z,0.09
2023-03-05T14:33:29.889Z,-0.01
2023-03-05T14:35:58.465Z,-0.05
2023-03-05T14:38:29.278Z,-0.05
2023-03-05T14:40:56.080Z,-0.03
2023-03-05T14:43:22.970Z,-0.05
2023-03-05T14:45:49.927Z,-0.06
2023-03-05T14:48:18.890Z,-0.07
2023-03-05T14:50:54.107Z,-0.12
2023-03-05T14:53:24.434Z,-0.02
2023-03-05T14:55:56.900Z,-0.03
2023-03-05T14:58:32.270Z,-0.02
2023-03-05T15:00:59.449Z,0.02
2023-03-05T15:03:28.110Z,-0.02
2023-03-05T15:05:57.816Z,-0.02
2023-03-05T15:08:32.401Z,-0.21
2023-03-05T15:11:00.205Z,-0.10
2023-03-05T15:13:27.323Z,-0.07
2023-03-05T15:15:54.558Z,-0.06
2023-03-05T15:18:22.916Z,-0.02
2023-03-05T15:20:53.020Z,-0.01
2023-03-05T15:23:20.486Z,0.01
2023-03-05T15:25:47.670Z,0.04
2023-03-05T15:28:14.739Z,-0.01
2023-03-05T15:30:44.865Z,-0.02
2023-03-05T15:33:14.851Z,-0.05
2023-03-05T15:35:42.566Z,-0.11
2023-03-05T15:38:09.486Z,-0.30
2023-03-05T15:40:36.399Z,-0.28
2023-03-05T15:43:03.258Z,-0.28
2023-03-05T15:45:31.571Z,-0.26
2023-03-05T15:47:58.714Z,-0.28
2023-03-05T15:50:25.547Z,-0.22
2023-03-05T15:52:52.751Z,-0.19
2023-03-05T15:55:20.007Z,-0.25
2023-03-05T15:57:49.928Z,-0.19
2023-03-05T16:00:20.611Z,-0.15
2023-03-05T16:02:48.212Z,-0.16
2023-03-05T16:05:15.039Z,-0.37
2023-03-05T16:07:46.179Z,-0.26
2023-03-05T16:10:21.627Z,-0.29
2023-03-05T16:12:51.176Z,-0.26
2023-03-05T16:15:20.523Z,-0.24
2023-03-05T16:17:51.417Z,-0.24
2023-03-05T16:20:18.527Z,-0.28
2023-03-05T16:22:46.543Z,-0.27
2023-03-05T16:25:13.595Z,-0.30
2023-03-05T16:27:40.466Z,-0.31
2023-03-05T16:30:08.109Z,-0.26
2023-03-05T16:32:35.013Z,-0.24
2023-03-05T16:35:01.843Z,-0.25
2023-03-05T16:37:30.359Z,-0.23
2023-03-05T16:39:59.585Z,-0.21
2023-03-05T16:42:26.847Z,-0.20
2023-03-05T16:44:54.269Z,-0.25
2023-03-05T16:47:21.222Z,-0.25
2023-03-05T16:49:48.100Z,-0.26
2023-03-05T16:52:19.602Z,-0.28
2023-03-05T16:54:47.675Z,-0.31
2023-03-05T16:57:14.649Z,-0.35
2023-03-05T16:59:43.675Z,-0.32
2023-03-05T17:02:12.807Z,-0.30
2023-03-05T17:04:39.419Z,-0.32
2023-03-05T17:07:06.414Z,-0.33
2023-03-05T17:09:33.844Z,-0.32
2023-03-05T17:12:00.686Z,-0.30
2023-03-05T17:14:27.905Z,-0.28
2023-03-05T17:16:54.814Z,-0.25
2023-03-05T17:19:21.681Z,-0.27
2023-03-05T17:21:51.195Z,-0.30
2023-03-05T17:24:20.810Z,-0.31
2023-03-05T17:26:49.846Z,-0.33
2023-03-05T17:29:16.766Z,-0.37
2023-03-05T17:31:43.900Z,-0.38
2023-03-05T17:34:10.727Z,-0.43
2023-03-05T17:36:39.440Z,-0.44
2023-03-05T17:39:06.299Z,-0.44
2023-03-05T17:41:33.049Z,-0.47
2023-03-05T17:43:59.824Z,-0.41
2023-03-05T17:46:26.612Z,-0.45
2023-03-05T17:48:53.387Z,-0.50
2023-03-05T17:51:21.425Z,-0.49
2023-03-05T17:53:48.349Z,-0.47
2023-03-05T17:56:17.203Z,-0.42
2023-03-05T17:58:44.682Z,-0.43
2023-03-05T18:01:11.536Z,-0.64
2023-03-05T18:03:38.307Z,-0.56
2023-03-05T18:06:06.269Z,-0.54
2023-03-05T18:08:33.005Z,-0.54
2023-03-05T18:10:59.768Z,-0.62
2023-03-05T18:13:26.632Z,-0.63
2023-03-05T18:15:53.662Z,-0.62
2023-03-05T18:18:20.512Z,-0.63
2023-03-05T18:20:48.826Z,-0.66
2023-03-05T18:23:16.067Z,-0.77
2023-03-05T18:25:44.395Z,-0.84
2023-03-05T18:28:13.413Z,-0.94
2023-03-05T18:30:41.585Z,-0.94
2023-03-05T18:33:15.698Z,-0.98
2023-03-05T18:35:42.517Z,-1.01
2023-03-05T18:38:09.361Z,-1.01
2023-03-05T18:40:39.428Z,-1.03
2023-03-05T18:43:06.471Z,-1.07
2023-03-05T18:45:34.383Z,-1.11
2023-03-05T18:48:01.324Z,-1.16
2023-03-05T18:50:28.922Z,-1.21
2023-03-05T18:52:56.024Z,-1.23
2023-03-05T18:55:28.366Z,-1.24
2023-03-05T18:57:55.786Z,-1.26
2023-03-05T19:00:26.373Z,-1.26
2023-03-05T19:02:53.828Z,-1.25
2023-03-05T19:05:20.834Z,-1.28
2023-03-05T19:07:48.425Z,-1.31
2023-03-05T19:10:16.311Z,-1.34
2023-03-05T19:13:35.889Z,-1.40
2023-03-05T19:16:23.928Z,-1.43
2023-03-05T19:19:20.370Z,-1.45
2023-03-05T19:21:49.824Z,-1.48
2023-03-05T19:24:17.277Z,-1.50
2023-03-05T19:26:45.482Z,-1.50
2023-03-05T19:29:12.654Z,-1.54
2023-03-05T19:31:39.578Z,-1.44
2023-03-05T19:34:06.940Z,-1.48
2023-03-05T19:36:35.199Z,-1.42
2023-03-05T19:39:07.285Z,-1.43
2023-03-05T19:41:35.381Z,-1.46
2023-03-05T19:44:02.475Z,-1.46
2023-03-05T19:46:29.565Z,-1.47
2023-03-05T19:48:56.484Z,-1.47
2023-03-05T19:51:25.626Z,-1.44
2023-03-05T19:53:52.802Z,-1.41
2023-03-05T19:56:19.668Z,-1.42
2023-03-05T19:58:48.997Z,-1.42
2023-03-05T20:01:26.127Z,-1.41
2023-03-05T20:03:55.601Z,-1.43
2023-03-05T20:06:24.346Z,-1.42
2023-03-05T20:08:51.136Z,-1.38
2023-03-05T20:11:19.434Z,-1.39
2023-03-05T20:13:46.782Z,-1.46
2023-03-05T20:16:18.796Z,-1.51
2023-03-05T20:18:46.606Z,-1.53
2023-03-05T20:21:21.455Z,-1.56
2023-03-05T20:23:48.494Z,-1.60
2023-03-05T20:26:15.255Z,-1.60
2023-03-05T20:28:42.094Z,-1.61
2023-03-05T20:31:08.965Z,-1.64
2023-03-05T20:33:36.016Z,-1.61
2023-03-05T20:36:02.816Z,-1.58
2023-03-05T20:38:31.432Z,-1.57
2023-03-05T20:41:02.784Z,-1.59
2023-03-05T20:43:32.050Z,-1.53
2023-03-05T20:45:59.904Z,-1.49
2023-03-05T20:48:29.523Z,-1.54
2023-03-05T20:50:56.904Z,-1.53
2023-03-05T20:53:24.212Z,-1.55
2023-03-05T20:55:51.660Z,-1.59
2023-03-05T20:58:18.405Z,-1.59
2023-03-05T21:00:45.238Z,-1.58
2023-03-05T21:03:12.093Z,-1.52
2023-03-05T21:05:38.927Z,-1.56
2023-03-05T21:08:05.881Z,-1.59
2023-03-05T21:10:33.119Z,-1.57
2023-03-05T21:13:00.983Z,-1.58
2023-03-05T21:15:29.892Z,-1.52
2023-03-05T21:17:57.483Z,-1.49
2023-03-05T21:20:27.766Z,-1.46
2023-03-05T21:22:55.552Z,-1.46
2023-03-05T21:25:31.961Z,-1.47
2023-03-05T21:28:16.383Z,-1.49
2023-03-05T21:30:46.324Z,-1.48
2023-03-05T21:33:25.361Z,-1.49
2023-03-05T21:35:52.873Z,-1.49
2023-03-05T21:38:23.194Z,-1.48
2023-03-05T21:40:51.450Z,-1.47
2023-03-05T21:43:23.139Z,-1.48
2023-03-05T21:45:54.872Z,-1.46
2023-03-05T21:48:22.492Z,-1.44
2023-03-05T21:50:50.321Z,-1.41
2023-03-05T21:53:18.660Z,-1.40
2023-03-05T21:56:03.102Z,-1.52
2023-03-05T21:58:34.525Z,-1.40
2023-03-05T22:01:01.835Z,-1.49
2023-03-05T22:03:29.420Z,-1.39
2023-03-05T22:05:57.040Z,-1.35
2023-03-05T22:08:24.721Z,-1.35
2023-03-05T22:10:51.489Z,-1.36
2023-03-05T22:13:20.146Z,-1.42
2023-03-05T22:15:51.408Z,-1.31
2023-03-05T22:18:21.878Z,-1.31
2023-03-05T22:20:49.210Z,-1.33
2023-03-05T22:23:17.244Z,-1.33
2023-03-05T22:25:44.730Z,-1.30
2023-03-05T22:28:12.739Z,-1.26
2023-03-05T22:30:44.172Z,-1.23
2023-03-05T22:33:11.317Z,-1.25
2023-03-05T22:35:41.843Z,-1.25
2023-03-05T22:38:12.850Z,-1.24
2023-03-05T22:40:44.461Z,-1.21
2023-03-05T22:43:12.488Z,-1.18
2023-03-05T22:45:40.129Z,-1.25
2023-03-05T22:48:07.554Z,-1.19
2023-03-05T22:50:34.260Z,-1.19
2023-03-05T22:53:01.149Z,-1.15
2023-03-05T22:55:28.045Z,-1.11
2023-03-05T22:57:54.772Z,-1.08
2023-03-05T23:00:26.849Z,-1.10
2023-03-05T23:02:54.015Z,-1.12
2023-03-05T23:05:21.228Z,-1.11
2023-03-05T23:07:48.145Z,-1.11
2023-03-05T23:10:17.218Z,-1.24
2023-03-05T23:12:46.290Z,-1.13
2023-03-05T23:15:14.000Z,-1.15
2023-03-05T23:17:41.108Z,-1.20
2023-03-05T23:20:10.401Z,-1.24
2023-03-05T23:22:40.094Z,-1.22
2023-03-05T23:25:07.394Z,-1.16
2023-03-05T23:27:34.365Z,-1.14
2023-03-05T23:30:20.859Z,-1.16
2023-03-05T23:32:49.400Z,-1.18
2023-03-05T23:35:27.622Z,-1.18
2023-03-05T23:37:56.156Z,-1.18
2023-03-05T23:40:25.544Z,-1.22
2023-03-05T23:42:53.032Z,-1.20
2023-03-05T23:45:21.684Z,-1.16
2023-03-05T23:47:48.991Z,-1.16
2023-03-05T23:50:18.759Z,-1.18
2023-03-05T23:52:46.004Z,-1.23
2023-03-05T23:55:19.078Z,-1.16
2023-03-05T23:57:47.272Z,-1.19
